createdAt,value
2018-09-14T00:03:51.544Z,100618.27
2018-09-14T00:08:54.864Z,100615.07
2018-09-14T00:13:58.270Z,100615.66
2018-09-14T00:19:01.638Z,100622.49
2018-09-14T00:24:05.057Z,100617.77
2018-09-14T00:29:08.417Z,100599.97
2018-09-14T00:34:11.749Z,100598.70
2018-09-14T00:39:15.085Z,100599.87
2018-09-14T00:44:18.401Z,100604.76
2018-09-14T00:49:21.754Z,100602.08
2018-09-14T00:54:25.097Z,100598.28
2018-09-14T00:59:28.439Z,100597.76
2018-09-14T01:04:31.802Z,100600.96
2018-09-14T01:09:35.150Z,100601.48
2018-09-14T01:14:38.473Z,100592.33
2018-09-14T01:19:41.832Z,100600.38
2018-09-14T01:24:45.163Z,100601.50
2018-09-14T01:29:48.529Z,100599.56
2018-09-14T01:34:51.884Z,100607.80
2018-09-14T01:39:55.218Z,100605.56
2018-09-14T01:44:58.566Z,100604.05
2018-09-14T01:50:02.040Z,100597.13
2018-09-14T01:55:06.402Z,100593.50
2018-09-14T02:00:09.767Z,100599.39
2018-09-14T02:05:13.110Z,100597.13
2018-09-14T02:10:23.606Z,100594.55
2018-09-14T02:15:26.938Z,100598.91
2018-09-14T02:20:30.231Z,100594.48
2018-09-14T02:25:33.611Z,100586.14
2018-09-14T02:30:36.955Z,100583.77
2018-09-14T02:35:40.259Z,100580.27
2018-09-14T02:40:43.591Z,100579.97
2018-09-14T02:45:46.941Z,100583.88
2018-09-14T02:50:50.303Z,100590.80
2018-09-14T02:55:53.746Z,100585.44
2018-09-14T03:00:57.075Z,100590.20
2018-09-14T03:06:00.406Z,100591.14
2018-09-14T03:11:03.727Z,100596.02
2018-09-14T03:16:07.023Z,100587.98
2018-09-14T03:21:10.379Z,100591.89
2018-09-14T03:26:14.140Z,100593.83
2018-09-14T03:31:17.447Z,100586.64
2018-09-14T03:36:20.750Z,100594.16
2018-09-14T03:41:24.055Z,100608.79
2018-09-14T03:46:27.375Z,100602.61
2018-09-14T03:51:30.700Z,100599.41
2018-09-14T03:56:34.017Z,100592.48
2018-09-14T04:01:37.329Z,100601.09
2018-09-14T04:06:40.633Z,100599.34
2018-09-14T04:11:44.085Z,100606.55
2018-09-14T04:16:47.429Z,100607.30
2018-09-14T04:21:50.722Z,100606.37
2018-09-14T04:26:54.066Z,100608.56
2018-09-14T04:31:57.434Z,100608.34
2018-09-14T04:37:00.750Z,100613.18
2018-09-14T04:42:04.146Z,100613.81
2018-09-14T04:47:07.435Z,100612.47
2018-09-14T04:52:10.809Z,100615.75
2018-09-14T04:57:14.189Z,100620.39
2018-09-14T05:02:17.606Z,100621.44
2018-09-14T05:07:20.939Z,100622.55
2018-09-14T05:12:25.074Z,100625.64
2018-09-14T05:17:28.400Z,100631.34
2018-09-14T05:22:31.719Z,100626.98
2018-09-14T05:27:35.039Z,100628.66
2018-09-14T05:32:38.379Z,100636.25
2018-09-14T05:37:41.699Z,100632.97
2018-09-14T05:42:45.057Z,100638.94
2018-09-14T05:47:48.380Z,100639.34
2018-09-14T05:52:51.706Z,100641.91
2018-09-14T05:57:55.022Z,100645.90
2018-09-14T06:02:58.411Z,100651.55
2018-09-14T06:08:01.748Z,100657.77
2018-09-14T06:13:05.079Z,100660.75
2018-09-14T06:18:08.384Z,100669.20
2018-09-14T06:28:21.282Z,100675.45
2018-09-14T06:33:24.646Z,100675.70
2018-09-14T06:38:27.986Z,100673.32
2018-09-14T06:43:31.327Z,100673.06
2018-09-14T06:48:34.654Z,100677.61
2018-09-14T06:53:38.060Z,100678.39
2018-09-14T06:58:41.419Z,100683.11
2018-09-14T07:03:44.771Z,100679.64
2018-09-14T07:08:48.167Z,100688.74
2018-09-14T07:13:51.483Z,100684.07
2018-09-14T07:18:54.840Z,100687.70
2018-09-14T07:23:58.170Z,100695.41
2018-09-14T07:29:01.569Z,100694.59
2018-09-14T07:34:04.836Z,100698.67
2018-09-14T07:39:09.512Z,100707.15
2018-09-14T07:44:12.837Z,100709.29
2018-09-14T07:49:16.166Z,100713.91
2018-09-14T07:54:19.459Z,100720.15
2018-09-14T07:59:22.778Z,100725.81
2018-09-14T08:04:26.226Z,100725.17
2018-09-14T08:09:29.560Z,100732.17
2018-09-14T08:14:32.869Z,100731.83
2018-09-14T08:19:36.173Z,100733.09
2018-09-14T08:24:39.538Z,100735.19
2018-09-14T08:29:42.855Z,100741.49
2018-09-14T08:34:46.201Z,100743.88
2018-09-14T08:39:49.509Z,100741.72
2018-09-14T08:44:53.054Z,100744.45
2018-09-14T08:49:56.350Z,100750.45
2018-09-14T08:54:59.686Z,100753.30
2018-09-14T09:00:03.089Z,100747.52
2018-09-14T09:05:06.580Z,100744.16
2018-09-14T09:10:09.876Z,100754.70
2018-09-14T09:15:13.201Z,100746.38
2018-09-14T09:20:16.511Z,100744.66
2018-09-14T09:25:19.856Z,100745.48
2018-09-14T09:30:23.198Z,100742.92
2018-09-14T09:35:26.543Z,100732.70
2018-09-14T09:40:29.863Z,100729.84
2018-09-14T09:45:33.185Z,100728.29
2018-09-14T09:50:36.554Z,100717.86
2018-09-14T09:55:39.871Z,100710.77
2018-09-14T10:00:48.639Z,100713.02
2018-09-14T10:06:01.222Z,100712.05
2018-09-14T10:11:04.576Z,100717.34
2018-09-14T10:16:07.912Z,100722.08
2018-09-14T10:21:11.257Z,100717.98
2018-09-14T10:26:14.613Z,100722.36
2018-09-14T10:31:17.943Z,100720.73
2018-09-14T10:36:21.257Z,100721.16
2018-09-14T10:41:24.577Z,100721.70
2018-09-14T10:46:27.943Z,100718.09
2018-09-14T10:51:31.482Z,100715.27
2018-09-14T10:56:34.795Z,100711.84
2018-09-14T11:01:38.150Z,100708.01
2018-09-14T11:06:41.590Z,100705.75
2018-09-14T11:11:44.874Z,100703.86
2018-09-14T11:16:48.175Z,100707.48
2018-09-14T11:21:51.511Z,100719.61
2018-09-14T11:26:54.850Z,100708.84
2018-09-14T11:31:58.155Z,100714.61
2018-09-14T11:37:01.520Z,100705.64
2018-09-14T11:42:04.926Z,100704.94
2018-09-14T11:47:08.255Z,100702.63
2018-09-14T11:52:11.571Z,100697.86
2018-09-14T11:57:14.866Z,100691.81
2018-09-14T12:02:18.206Z,100695.47
2018-09-14T12:07:21.539Z,100685.52
2018-09-14T12:12:25.099Z,100684.03
2018-09-14T12:17:28.490Z,100680.29
2018-09-14T12:22:31.881Z,100677.31
2018-09-14T12:27:35.218Z,100672.21
2018-09-14T12:32:38.643Z,100680.98
2018-09-14T12:37:41.975Z,100668.67
2018-09-14T12:42:45.848Z,100669.51
2018-09-14T12:47:49.341Z,100669.92
2018-09-14T12:52:52.826Z,100670.34
2018-09-14T12:57:56.227Z,100663.13
2018-09-14T13:02:59.592Z,100658.19
2018-09-14T13:08:03.183Z,100652.20
2018-09-14T13:13:06.639Z,100650.67
2018-09-14T13:18:09.994Z,100650.71
2018-09-14T13:23:14.038Z,100648.08
2018-09-14T13:28:17.511Z,100640.53
2018-09-14T13:33:20.935Z,100639.64
2018-09-14T13:38:24.251Z,100634.78
2018-09-14T13:43:27.599Z,100631.52
2018-09-14T13:48:30.910Z,100633.72
2018-09-14T13:53:34.324Z,100626.43
2018-09-14T13:58:37.638Z,100618.66
2018-09-14T14:03:40.957Z,100613.86
2018-09-14T14:08:44.291Z,100603.45
2018-09-14T14:13:47.836Z,100596.56
2018-09-14T14:18:51.122Z,100598.23
2018-09-14T14:23:54.477Z,100592.22
2018-09-14T14:28:57.811Z,100593.02
2018-09-14T14:34:01.131Z,100586.45
2018-09-14T14:39:05.722Z,100585.60
2018-09-14T14:44:09.039Z,100578.16
2018-09-14T14:49:12.426Z,100577.59
2018-09-14T14:54:15.842Z,100576.83
2018-09-14T14:59:19.186Z,100568.13
2018-09-14T15:04:22.546Z,100569.99
2018-09-14T15:09:25.871Z,100560.40
2018-09-14T15:14:29.185Z,100564.59
2018-09-14T15:19:32.527Z,100554.95
2018-09-14T15:24:35.898Z,100550.02
2018-09-14T15:29:39.431Z,100548.95
2018-09-14T15:34:42.730Z,100545.14
2018-09-14T15:39:46.123Z,100536.60
2018-09-14T15:44:49.459Z,100534.28
2018-09-14T15:49:52.794Z,100537.48
2018-09-14T15:54:56.146Z,100535.08
2018-09-14T15:59:59.558Z,100534.45
2018-09-14T16:05:02.907Z,100525.16
2018-09-14T16:10:06.283Z,100524.20
2018-09-14T16:15:09.631Z,100526.29
2018-09-14T16:20:13.900Z,100523.27
2018-09-14T16:25:17.219Z,100518.98
2018-09-14T16:30:20.619Z,100519.90
2018-09-14T16:35:23.947Z,100523.62
2018-09-14T16:40:27.262Z,100527.99
2018-09-14T16:45:30.729Z,100520.25
2018-09-14T16:50:34.094Z,100517.06
2018-09-14T16:55:37.474Z,100516.09
2018-09-14T17:00:40.789Z,100513.41
2018-09-14T17:05:44.122Z,100517.41
2018-09-14T17:10:47.563Z,100519.52
2018-09-14T17:15:51.014Z,100523.59
2018-09-14T17:20:54.363Z,100529.38
2018-09-14T17:25:57.734Z,100531.73
2018-09-14T17:31:01.080Z,100538.37
2018-09-14T17:36:04.395Z,100541.31
2018-09-14T17:41:07.927Z,100543.23
2018-09-14T17:46:11.267Z,100543.23
2018-09-14T17:51:14.579Z,100547.80
2018-09-14T17:56:17.950Z,100535.03
2018-09-14T18:01:21.284Z,100546.55
2018-09-14T18:06:24.621Z,100546.61
2018-09-14T18:11:27.930Z,100547.97
2018-09-14T18:16:31.290Z,100546.97
2018-09-14T18:21:34.630Z,100546.69
2018-09-14T18:26:37.966Z,100553.73
2018-09-14T18:31:41.303Z,100562.56
2018-09-14T18:36:44.614Z,100564.52
2018-09-14T18:41:47.990Z,100565.03
2018-09-14T18:46:51.389Z,100559.69
2018-09-14T18:51:54.668Z,100562.03
2018-09-14T18:56:58.028Z,100550.27
2018-09-14T19:02:01.350Z,100564.88
2018-09-14T19:07:04.656Z,100568.13
2018-09-14T19:12:08.151Z,100567.67
2018-09-14T19:17:11.769Z,100564.77
2018-09-14T19:22:15.108Z,100562.91
2018-09-14T19:27:18.528Z,100565.27
2018-09-14T19:32:21.865Z,100557.05
2018-09-14T19:37:25.235Z,100561.20
2018-09-14T19:42:28.557Z,100562.41
2018-09-14T19:47:31.990Z,100567.50
2018-09-14T19:52:35.369Z,100562.07
2018-09-14T19:57:38.751Z,100558.40
2018-09-14T20:02:42.192Z,100561.19
2018-09-14T20:07:45.764Z,100563.61
2018-09-14T20:12:49.140Z,100563.24
2018-09-14T20:17:52.526Z,100566.44
2018-09-14T20:22:55.899Z,100568.61
2018-09-14T20:27:59.228Z,100563.19
2018-09-14T20:33:02.663Z,100567.89
2018-09-14T20:38:06.001Z,100557.39
2018-09-14T20:43:09.451Z,100561.00
2018-09-14T20:48:12.770Z,100556.80
2018-09-14T20:53:16.078Z,100551.33
2018-09-14T20:58:19.400Z,100556.91
2018-09-14T21:03:22.743Z,100551.38
2018-09-14T21:08:26.163Z,100546.88
2018-09-14T21:13:29.478Z,100546.57
2018-09-14T21:18:32.807Z,100545.27
2018-09-14T21:23:36.138Z,100554.87
2018-09-14T21:28:39.617Z,100554.91
2018-09-14T21:33:43.017Z,100554.38
2018-09-14T21:38:46.295Z,100552.33
2018-09-14T21:43:49.643Z,100556.73
2018-09-14T21:48:52.993Z,100547.80
2018-09-14T21:53:56.368Z,100554.48
2018-09-14T21:58:59.691Z,100553.16
2018-09-14T22:04:02.983Z,100544.82
2018-09-14T22:09:08.807Z,100540.17
2018-09-14T22:14:12.093Z,100542.22
2018-09-14T22:19:21.991Z,100534.37
2018-09-14T22:24:25.302Z,100533.11
2018-09-14T22:29:28.654Z,100532.33
2018-09-14T22:34:31.975Z,100532.36
2018-09-14T22:39:35.262Z,100530.50
2018-09-14T22:44:38.564Z,100520.49
2018-09-14T22:49:41.893Z,100529.68
2018-09-14T22:54:45.317Z,100521.53
2018-09-14T22:59:48.974Z,100525.63
2018-09-14T23:04:52.279Z,100558.06
2018-09-14T23:09:55.646Z,100545.86
2018-09-14T23:14:58.958Z,100542.36
2018-09-14T23:20:02.299Z,100553.48
2018-09-14T23:25:06.590Z,100549.95
2018-09-14T23:30:09.906Z,100546.98
2018-09-14T23:35:13.232Z,100547.16
2018-09-14T23:40:16.566Z,100553.53
2018-09-14T23:45:19.884Z,100550.14
2018-09-14T23:50:23.257Z,100542.48
2018-09-14T23:55:26.806Z,100537.27
